sensor_id;sensor_type;location;lat;lon;timestamp;P1;durP1;ratioP1;P2;durP2;ratioP2
13327;SDS011;6733;51.044;3.746;2022-10-12T00:01:48;19.37;;;17.30;;
13327;SDS011;6733;51.044;3.746;2022-10-12T00:04:14;17.93;;;14.83;;
13327;SDS011;6733;51.044;3.746;2022-10-12T00:06:40;17.87;;;14.50;;
13327;SDS011;6733;51.044;3.746;2022-10-12T00:09:06;20.23;;;13.80;;
13327;SDS011;6733;51.044;3.746;2022-10-12T00:11:33;17.17;;;13.60;;
13327;SDS011;6733;51.044;3.746;2022-10-12T00:13:59;20.23;;;13.03;;
13327;SDS011;6733;51.044;3.746;2022-10-12T00:16:25;16.57;;;12.93;;
13327;SDS011;6733;51.044;3.746;2022-10-12T00:18:55;16.37;;;12.97;;
13327;SDS011;6733;51.044;3.746;2022-10-12T00:21:22;18.70;;;12.73;;
13327;SDS011;6733;51.044;3.746;2022-10-12T00:23:49;21.30;;;13.20;;
13327;SDS011;6733;51.044;3.746;2022-10-12T00:26:17;17.23;;;14.77;;
13327;SDS011;6733;51.044;3.746;2022-10-12T00:28:45;17.67;;;13.87;;
13327;SDS011;6733;51.044;3.746;2022-10-12T00:33:42;21.30;;;13.47;;
13327;SDS011;6733;51.044;3.746;2022-10-12T00:36:30;15.50;;;12.67;;
13327;SDS011;6733;51.044;3.746;2022-10-12T00:38:57;21.40;;;13.83;;
13327;SDS011;6733;51.044;3.746;2022-10-12T00:41:25;21.07;;;14.90;;
13327;SDS011;6733;51.044;3.746;2022-10-12T00:43:53;17.50;;;13.97;;
13327;SDS011;6733;51.044;3.746;2022-10-12T00:46:30;19.37;;;14.57;;
13327;SDS011;6733;51.044;3.746;2022-10-12T00:49:22;14.47;;;13.00;;
13327;SDS011;6733;51.044;3.746;2022-10-12T00:51:51;15.03;;;12.53;;
13327;SDS011;6733;51.044;3.746;2022-10-12T00:54:23;16.73;;;12.70;;
13327;SDS011;6733;51.044;3.746;2022-10-12T00:56:55;19.57;;;13.63;;
13327;SDS011;6733;51.044;3.746;2022-10-12T00:59:27;15.47;;;12.87;;
13327;SDS011;6733;51.044;3.746;2022-10-12T01:01:58;17.87;;;13.40;;
13327;SDS011;6733;51.044;3.746;2022-10-12T01:04:25;16.07;;;12.73;;
13327;SDS011;6733;51.044;3.746;2022-10-12T01:06:51;17.30;;;13.83;;
13327;SDS011;6733;51.044;3.746;2022-10-12T01:09:18;15.67;;;13.27;;
13327;SDS011;6733;51.044;3.746;2022-10-12T01:11:45;14.63;;;12.27;;
13327;SDS011;6733;51.044;3.746;2022-10-12T01:14:12;13.60;;;11.83;;
13327;SDS011;6733;51.044;3.746;2022-10-12T01:22:06;16.63;;;13.30;;
13327;SDS011;6733;51.044;3.746;2022-10-12T01:24:52;15.20;;;11.60;;
13327;SDS011;6733;51.044;3.746;2022-10-12T01:40:32;14.03;;;12.03;;
13327;SDS011;6733;51.044;3.746;2022-10-12T01:43:03;13.60;;;11.90;;
13327;SDS011;6733;51.044;3.746;2022-10-12T01:45:29;15.37;;;12.77;;
13327;SDS011;6733;51.044;3.746;2022-10-12T01:47:55;15.00;;;12.43;;
13327;SDS011;6733;51.044;3.746;2022-10-12T01:50:24;14.63;;;12.20;;
13327;SDS011;6733;51.044;3.746;2022-10-12T01:53:06;16.90;;;11.90;;
13327;SDS011;6733;51.044;3.746;2022-10-12T02:01:51;14.40;;;11.33;;
13327;SDS011;6733;51.044;3.746;2022-10-12T02:04:09;14.63;;;11.70;;
13327;SDS011;6733;51.044;3.746;2022-10-12T02:06:42;13.07;;;11.23;;
13327;SDS011;6733;51.044;3.746;2022-10-12T02:09:19;15.97;;;11.80;;
13327;SDS011;6733;51.044;3.746;2022-10-12T02:11:59;15.43;;;12.23;;
13327;SDS011;6733;51.044;3.746;2022-10-12T02:14:32;13.70;;;12.30;;
13327;SDS011;6733;51.044;3.746;2022-10-12T02:17:04;13.90;;;10.93;;
13327;SDS011;6733;51.044;3.746;2022-10-12T02:19:37;16.47;;;12.27;;
13327;SDS011;6733;51.044;3.746;2022-10-12T02:22:07;13.00;;;11.60;;
13327;SDS011;6733;51.044;3.746;2022-10-12T02:24:36;15.90;;;12.53;;
13327;SDS011;6733;51.044;3.746;2022-10-12T02:27:04;17.63;;;12.33;;
13327;SDS011;6733;51.044;3.746;2022-10-12T02:29:35;20.23;;;13.33;;
13327;SDS011;6733;51.044;3.746;2022-10-12T02:34:54;17.10;;;12.80;;
13327;SDS011;6733;51.044;3.746;2022-10-12T02:37:52;13.93;;;12.03;;
13327;SDS011;6733;51.044;3.746;2022-10-12T02:40:35;14.17;;;12.10;;
13327;SDS011;6733;51.044;3.746;2022-10-12T02:43:10;15.20;;;12.30;;
13327;SDS011;6733;51.044;3.746;2022-10-12T02:45:58;18.17;;;13.13;;
13327;SDS011;6733;51.044;3.746;2022-10-12T02:48:27;14.33;;;11.73;;
13327;SDS011;6733;51.044;3.746;2022-10-12T02:51:13;20.40;;;12.20;;
13327;SDS011;6733;51.044;3.746;2022-10-12T02:53:40;15.23;;;12.10;;
13327;SDS011;6733;51.044;3.746;2022-10-12T02:56:10;14.50;;;12.63;;
13327;SDS011;6733;51.044;3.746;2022-10-12T02:58:39;20.07;;;13.63;;
13327;SDS011;6733;51.044;3.746;2022-10-12T03:01:10;19.87;;;14.47;;
13327;SDS011;6733;51.044;3.746;2022-10-12T03:03:40;21.47;;;15.43;;
13327;SDS011;6733;51.044;3.746;2022-10-12T03:06:06;25.87;;;16.77;;
13327;SDS011;6733;51.044;3.746;2022-10-12T03:08:32;21.97;;;16.13;;
13327;SDS011;6733;51.044;3.746;2022-10-12T03:11:02;18.40;;;15.33;;
13327;SDS011;6733;51.044;3.746;2022-10-12T03:13:29;17.60;;;14.40;;
13327;SDS011;6733;51.044;3.746;2022-10-12T03:16:02;17.90;;;15.17;;
13327;SDS011;6733;51.044;3.746;2022-10-12T03:18:29;22.87;;;15.93;;
13327;SDS011;6733;51.044;3.746;2022-10-12T03:20:56;17.07;;;14.93;;
13327;SDS011;6733;51.044;3.746;2022-10-12T03:23:22;21.63;;;14.40;;
13327;SDS011;6733;51.044;3.746;2022-10-12T03:25:48;16.77;;;13.93;;
13327;SDS011;6733;51.044;3.746;2022-10-12T03:28:14;20.37;;;14.37;;
13327;SDS011;6733;51.044;3.746;2022-10-12T03:30:41;14.73;;;12.40;;
13327;SDS011;6733;51.044;3.746;2022-10-12T03:33:08;14.23;;;12.80;;
13327;SDS011;6733;51.044;3.746;2022-10-12T03:35:34;13.80;;;12.17;;
13327;SDS011;6733;51.044;3.746;2022-10-12T03:38:00;15.70;;;12.83;;
13327;SDS011;6733;51.044;3.746;2022-10-12T03:40:26;14.73;;;12.33;;
13327;SDS011;6733;51.044;3.746;2022-10-12T03:42:53;15.30;;;12.63;;
13327;SDS011;6733;51.044;3.746;2022-10-12T03:45:19;16.17;;;12.03;;
13327;SDS011;6733;51.044;3.746;2022-10-12T03:47:45;17.77;;;13.27;;
13327;SDS011;6733;51.044;3.746;2022-10-12T03:50:12;15.60;;;12.30;;
13327;SDS011;6733;51.044;3.746;2022-10-12T03:52:38;13.67;;;11.90;;
13327;SDS011;6733;51.044;3.746;2022-10-12T03:55:05;18.23;;;12.87;;
13327;SDS011;6733;51.044;3.746;2022-10-12T03:57:31;20.47;;;13.80;;
13327;SDS011;6733;51.044;3.746;2022-10-12T03:59:57;16.57;;;13.63;;
13327;SDS011;6733;51.044;3.746;2022-10-12T04:02:24;16.40;;;13.50;;
13327;SDS011;6733;51.044;3.746;2022-10-12T04:04:50;21.20;;;18.90;;
13327;SDS011;6733;51.044;3.746;2022-10-12T04:07:16;18.80;;;16.43;;
13327;SDS011;6733;51.044;3.746;2022-10-12T04:09:42;17.93;;;16.03;;
13327;SDS011;6733;51.044;3.746;2022-10-12T04:12:08;20.33;;;18.23;;
13327;SDS011;6733;51.044;3.746;2022-10-12T04:14:34;27.47;;;25.07;;
13327;SDS011;6733;51.044;3.746;2022-10-12T04:17:00;23.30;;;21.17;;
13327;SDS011;6733;51.044;3.746;2022-10-12T04:19:28;18.93;;;17.07;;
13327;SDS011;6733;51.044;3.746;2022-10-12T04:21:54;20.23;;;16.60;;
13327;SDS011;6733;51.044;3.746;2022-10-12T04:24:20;18.77;;;15.53;;
13327;SDS011;6733;51.044;3.746;2022-10-12T04:26:46;19.33;;;17.43;;
13327;SDS011;6733;51.044;3.746;2022-10-12T04:29:13;19.33;;;16.07;;
13327;SDS011;6733;51.044;3.746;2022-10-12T04:31:39;20.43;;;15.80;;
13327;SDS011;6733;51.044;3.746;2022-10-12T04:34:06;18.23;;;15.37;;
13327;SDS011;6733;51.044;3.746;2022-10-12T04:36:33;17.53;;;15.33;;
13327;SDS011;6733;51.044;3.746;2022-10-12T04:39:00;17.37;;;14.60;;
13327;SDS011;6733;51.044;3.746;2022-10-12T04:41:26;15.63;;;14.13;;
13327;SDS011;6733;51.044;3.746;2022-10-12T04:43:52;15.97;;;14.27;;
13327;SDS011;6733;51.044;3.746;2022-10-12T04:46:18;16.97;;;15.17;;
13327;SDS011;6733;51.044;3.746;2022-10-12T04:48:45;19.47;;;17.50;;
13327;SDS011;6733;51.044;3.746;2022-10-12T04:51:11;18.03;;;16.07;;
13327;SDS011;6733;51.044;3.746;2022-10-12T04:53:38;16.73;;;15.13;;
13327;SDS011;6733;51.044;3.746;2022-10-12T04:56:04;17.57;;;14.87;;
13327;SDS011;6733;51.044;3.746;2022-10-12T04:58:31;16.17;;;14.60;;
13327;SDS011;6733;51.044;3.746;2022-10-12T05:00:57;17.53;;;14.33;;
13327;SDS011;6733;51.044;3.746;2022-10-12T05:03:24;18.60;;;14.90;;
13327;SDS011;6733;51.044;3.746;2022-10-12T05:05:50;16.03;;;14.33;;
13327;SDS011;6733;51.044;3.746;2022-10-12T05:08:16;15.67;;;13.73;;
13327;SDS011;6733;51.044;3.746;2022-10-12T05:10:43;18.27;;;15.10;;
13327;SDS011;6733;51.044;3.746;2022-10-12T05:13:10;16.20;;;14.20;;
13327;SDS011;6733;51.044;3.746;2022-10-12T05:15:37;15.50;;;13.90;;
13327;SDS011;6733;51.044;3.746;2022-10-12T05:18:03;16.30;;;14.13;;
13327;SDS011;6733;51.044;3.746;2022-10-12T05:20:29;18.63;;;14.83;;
13327;SDS011;6733;51.044;3.746;2022-10-12T05:22:56;15.57;;;13.50;;
13327;SDS011;6733;51.044;3.746;2022-10-12T05:25:23;17.27;;;14.00;;
13327;SDS011;6733;51.044;3.746;2022-10-12T05:27:49;14.17;;;12.80;;
13327;SDS011;6733;51.044;3.746;2022-10-12T05:30:15;14.77;;;13.20;;
13327;SDS011;6733;51.044;3.746;2022-10-12T05:32:41;13.93;;;12.37;;
13327;SDS011;6733;51.044;3.746;2022-10-12T05:35:09;15.33;;;12.37;;
13327;SDS011;6733;51.044;3.746;2022-10-12T05:37:50;17.10;;;13.73;;
13327;SDS011;6733;51.044;3.746;2022-10-12T05:40:17;15.20;;;13.67;;
13327;SDS011;6733;51.044;3.746;2022-10-12T05:42:43;15.13;;;12.23;;
13327;SDS011;6733;51.044;3.746;2022-10-12T05:45:10;15.60;;;12.97;;
13327;SDS011;6733;51.044;3.746;2022-10-12T05:47:36;14.67;;;11.90;;
13327;SDS011;6733;51.044;3.746;2022-10-12T05:50:03;14.03;;;12.03;;
13327;SDS011;6733;51.044;3.746;2022-10-12T05:52:29;14.57;;;11.57;;
13327;SDS011;6733;51.044;3.746;2022-10-12T05:54:55;20.67;;;12.47;;
13327;SDS011;6733;51.044;3.746;2022-10-12T05:57:21;13.73;;;11.97;;
13327;SDS011;6733;51.044;3.746;2022-10-12T05:59:47;13.17;;;11.87;;
13327;SDS011;6733;51.044;3.746;2022-10-12T06:02:14;16.20;;;12.57;;
13327;SDS011;6733;51.044;3.746;2022-10-12T06:04:41;14.47;;;12.37;;
13327;SDS011;6733;51.044;3.746;2022-10-12T06:09:56;14.77;;;11.73;;
13327;SDS011;6733;51.044;3.746;2022-10-12T06:12:22;13.67;;;11.50;;
13327;SDS011;6733;51.044;3.746;2022-10-12T06:14:49;16.17;;;12.03;;
13327;SDS011;6733;51.044;3.746;2022-10-12T06:17:15;13.07;;;11.83;;
13327;SDS011;6733;51.044;3.746;2022-10-12T06:19:41;15.50;;;11.70;;
13327;SDS011;6733;51.044;3.746;2022-10-12T06:22:07;14.00;;;12.60;;
13327;SDS011;6733;51.044;3.746;2022-10-12T06:24:33;15.20;;;11.20;;
13327;SDS011;6733;51.044;3.746;2022-10-12T06:26:59;12.63;;;11.43;;
13327;SDS011;6733;51.044;3.746;2022-10-12T06:29:25;14.27;;;11.67;;
13327;SDS011;6733;51.044;3.746;2022-10-12T06:31:52;15.53;;;12.20;;
13327;SDS011;6733;51.044;3.746;2022-10-12T06:34:18;12.00;;;10.40;;
13327;SDS011;6733;51.044;3.746;2022-10-12T06:36:45;11.53;;;10.50;;
13327;SDS011;6733;51.044;3.746;2022-10-12T06:39:11;13.67;;;10.20;;
13327;SDS011;6733;51.044;3.746;2022-10-12T06:41:37;11.70;;;10.23;;
13327;SDS011;6733;51.044;3.746;2022-10-12T06:44:04;10.93;;;9.93;;
13327;SDS011;6733;51.044;3.746;2022-10-12T06:46:30;10.40;;;9.43;;
13327;SDS011;6733;51.044;3.746;2022-10-12T06:48:56;11.40;;;10.27;;
13327;SDS011;6733;51.044;3.746;2022-10-12T06:51:22;11.30;;;10.13;;
13327;SDS011;6733;51.044;3.746;2022-10-12T06:53:48;12.03;;;9.90;;
13327;SDS011;6733;51.044;3.746;2022-10-12T06:56:15;12.00;;;10.23;;
13327;SDS011;6733;51.044;3.746;2022-10-12T06:58:41;11.13;;;9.80;;
13327;SDS011;6733;51.044;3.746;2022-10-12T07:01:07;14.23;;;11.17;;
13327;SDS011;6733;51.044;3.746;2022-10-12T07:03:35;17.40;;;12.17;;
13327;SDS011;6733;51.044;3.746;2022-10-12T07:06:05;17.17;;;11.73;;
13327;SDS011;6733;51.044;3.746;2022-10-12T07:08:38;15.13;;;12.67;;
13327;SDS011;6733;51.044;3.746;2022-10-12T07:11:06;16.00;;;12.80;;
13327;SDS011;6733;51.044;3.746;2022-10-12T07:13:34;20.17;;;14.03;;
13327;SDS011;6733;51.044;3.746;2022-10-12T07:16:00;21.07;;;13.77;;
13327;SDS011;6733;51.044;3.746;2022-10-12T07:18:27;17.73;;;14.07;;
13327;SDS011;6733;51.044;3.746;2022-10-12T07:20:55;17.47;;;14.03;;
13327;SDS011;6733;51.044;3.746;2022-10-12T07:23:24;15.40;;;12.90;;
13327;SDS011;6733;51.044;3.746;2022-10-12T07:25:51;16.80;;;14.17;;
13327;SDS011;6733;51.044;3.746;2022-10-12T07:28:18;19.13;;;14.00;;
13327;SDS011;6733;51.044;3.746;2022-10-12T07:30:45;16.73;;;13.83;;
13327;SDS011;6733;51.044;3.746;2022-10-12T07:33:12;19.63;;;14.53;;
13327;SDS011;6733;51.044;3.746;2022-10-12T07:35:38;24.03;;;15.03;;
13327;SDS011;6733;51.044;3.746;2022-10-12T07:38:04;22.40;;;15.57;;
13327;SDS011;6733;51.044;3.746;2022-10-12T07:40:31;25.53;;;15.57;;
13327;SDS011;6733;51.044;3.746;2022-10-12T07:42:58;23.07;;;15.57;;
13327;SDS011;6733;51.044;3.746;2022-10-12T07:45:25;22.50;;;16.23;;
13327;SDS011;6733;51.044;3.746;2022-10-12T07:47:54;24.17;;;15.73;;
13327;SDS011;6733;51.044;3.746;2022-10-12T07:50:20;20.93;;;14.80;;
13327;SDS011;6733;51.044;3.746;2022-10-12T07:52:47;28.03;;;17.53;;
13327;SDS011;6733;51.044;3.746;2022-10-12T07:55:13;31.27;;;17.07;;
13327;SDS011;6733;51.044;3.746;2022-10-12T07:57:40;30.40;;;18.80;;
13327;SDS011;6733;51.044;3.746;2022-10-12T08:00:06;30.63;;;16.97;;
13327;SDS011;6733;51.044;3.746;2022-10-12T08:02:32;29.07;;;16.00;;
13327;SDS011;6733;51.044;3.746;2022-10-12T08:05:00;31.87;;;16.63;;
13327;SDS011;6733;51.044;3.746;2022-10-12T08:07:26;28.50;;;15.83;;
13327;SDS011;6733;51.044;3.746;2022-10-12T08:09:52;34.03;;;16.93;;
13327;SDS011;6733;51.044;3.746;2022-10-12T08:12:18;32.20;;;17.17;;
13327;SDS011;6733;51.044;3.746;2022-10-12T08:14:44;26.87;;;15.67;;
13327;SDS011;6733;51.044;3.746;2022-10-12T08:17:10;29.87;;;17.37;;
13327;SDS011;6733;51.044;3.746;2022-10-12T08:19:37;27.60;;;15.67;;
13327;SDS011;6733;51.044;3.746;2022-10-12T08:22:03;26.90;;;14.93;;
13327;SDS011;6733;51.044;3.746;2022-10-12T08:24:29;34.20;;;16.17;;
13327;SDS011;6733;51.044;3.746;2022-10-12T08:26:55;35.27;;;15.93;;
13327;SDS011;6733;51.044;3.746;2022-10-12T08:29:21;25.40;;;13.90;;
13327;SDS011;6733;51.044;3.746;2022-10-12T08:31:47;31.00;;;14.73;;
13327;SDS011;6733;51.044;3.746;2022-10-12T08:34:17;28.23;;;15.17;;
13327;SDS011;6733;51.044;3.746;2022-10-12T08:36:43;31.10;;;15.00;;
13327;SDS011;6733;51.044;3.746;2022-10-12T08:39:13;27.27;;;14.90;;
13327;SDS011;6733;51.044;3.746;2022-10-12T08:44:32;22.40;;;14.30;;
13327;SDS011;6733;51.044;3.746;2022-10-12T08:47:10;21.00;;;13.03;;
13327;SDS011;6733;51.044;3.746;2022-10-12T08:49:44;25.03;;;13.90;;
13327;SDS011;6733;51.044;3.746;2022-10-12T08:52:19;22.63;;;13.10;;
13327;SDS011;6733;51.044;3.746;2022-10-12T08:54:48;25.37;;;14.43;;
13327;SDS011;6733;51.044;3.746;2022-10-12T08:57:17;22.87;;;13.10;;
13327;SDS011;6733;51.044;3.746;2022-10-12T08:59:44;24.23;;;14.43;;
13327;SDS011;6733;51.044;3.746;2022-10-12T09:02:25;19.40;;;13.20;;
13327;SDS011;6733;51.044;3.746;2022-10-12T09:05:16;20.37;;;12.57;;
13327;SDS011;6733;51.044;3.746;2022-10-12T09:07:54;20.03;;;13.53;;
13327;SDS011;6733;51.044;3.746;2022-10-12T09:10:46;23.63;;;13.37;;
13327;SDS011;6733;51.044;3.746;2022-10-12T09:16:01;21.80;;;12.43;;
13327;SDS011;6733;51.044;3.746;2022-10-12T09:20:59;26.50;;;14.07;;
13327;SDS011;6733;51.044;3.746;2022-10-12T09:23:31;22.33;;;12.93;;
13327;SDS011;6733;51.044;3.746;2022-10-12T09:26:10;23.07;;;13.80;;
13327;SDS011;6733;51.044;3.746;2022-10-12T09:28:44;24.10;;;13.07;;
13327;SDS011;6733;51.044;3.746;2022-10-12T09:34:15;20.30;;;13.60;;
13327;SDS011;6733;51.044;3.746;2022-10-12T09:36:41;18.83;;;12.13;;
13327;SDS011;6733;51.044;3.746;2022-10-12T09:39:17;23.70;;;13.13;;
13327;SDS011;6733;51.044;3.746;2022-10-12T09:44:19;17.83;;;11.53;;
13327;SDS011;6733;51.044;3.746;2022-10-12T09:47:02;19.50;;;12.63;;
13327;SDS011;6733;51.044;3.746;2022-10-12T09:49:39;22.17;;;11.90;;
13327;SDS011;6733;51.044;3.746;2022-10-12T09:52:19;24.70;;;13.43;;
13327;SDS011;6733;51.044;3.746;2022-10-12T09:54:52;18.53;;;11.57;;
13327;SDS011;6733;51.044;3.746;2022-10-12T09:57:22;19.23;;;11.90;;
13327;SDS011;6733;51.044;3.746;2022-10-12T09:59:49;21.67;;;11.30;;
13327;SDS011;6733;51.044;3.746;2022-10-12T10:02:17;16.73;;;11.43;;
13327;SDS011;6733;51.044;3.746;2022-10-12T10:04:45;23.30;;;11.97;;
13327;SDS011;6733;51.044;3.746;2022-10-12T10:12:36;20.17;;;12.20;;
13327;SDS011;6733;51.044;3.746;2022-10-12T10:15:30;18.73;;;11.93;;
13327;SDS011;6733;51.044;3.746;2022-10-12T10:17:59;22.27;;;11.70;;
13327;SDS011;6733;51.044;3.746;2022-10-12T10:20:32;22.10;;;12.67;;
13327;SDS011;6733;51.044;3.746;2022-10-12T10:22:59;18.70;;;11.10;;
13327;SDS011;6733;51.044;3.746;2022-10-12T10:25:38;20.30;;;12.57;;
13327;SDS011;6733;51.044;3.746;2022-10-12T10:28:21;17.37;;;12.40;;
13327;SDS011;6733;51.044;3.746;2022-10-12T10:30:54;24.97;;;11.50;;
13327;SDS011;6733;51.044;3.746;2022-10-12T10:33:23;20.40;;;12.03;;
13327;SDS011;6733;51.044;3.746;2022-10-12T10:41:30;24.00;;;11.83;;
13327;SDS011;6733;51.044;3.746;2022-10-12T10:44:01;16.83;;;11.43;;
13327;SDS011;6733;51.044;3.746;2022-10-12T10:46:28;19.80;;;10.70;;
13327;SDS011;6733;51.044;3.746;2022-10-12T10:49:01;19.77;;;11.33;;
13327;SDS011;6733;51.044;3.746;2022-10-12T10:56:58;19.90;;;11.40;;
13327;SDS011;6733;51.044;3.746;2022-10-12T11:07:58;15.70;;;9.20;;
13327;SDS011;6733;51.044;3.746;2022-10-12T11:16:01;14.00;;;9.10;;
13327;SDS011;6733;51.044;3.746;2022-10-12T11:21:11;16.03;;;8.20;;
13327;SDS011;6733;51.044;3.746;2022-10-12T11:26:25;17.07;;;9.90;;
13327;SDS011;6733;51.044;3.746;2022-10-12T11:28:57;12.30;;;8.53;;
13327;SDS011;6733;51.044;3.746;2022-10-12T11:31:51;17.30;;;8.63;;
13327;SDS011;6733;51.044;3.746;2022-10-12T11:34:29;15.30;;;7.77;;
13327;SDS011;6733;51.044;3.746;2022-10-12T11:37:02;15.80;;;7.77;;
13327;SDS011;6733;51.044;3.746;2022-10-12T11:39:34;14.33;;;8.07;;
13327;SDS011;6733;51.044;3.746;2022-10-12T11:42:04;14.57;;;8.67;;
13327;SDS011;6733;51.044;3.746;2022-10-12T11:44:43;15.23;;;7.97;;
13327;SDS011;6733;51.044;3.746;2022-10-12T11:47:15;15.27;;;8.37;;
13327;SDS011;6733;51.044;3.746;2022-10-12T11:49:59;17.37;;;7.97;;
13327;SDS011;6733;51.044;3.746;2022-10-12T11:52:36;18.30;;;7.83;;
13327;SDS011;6733;51.044;3.746;2022-10-12T11:57:54;18.63;;;7.80;;
13327;SDS011;6733;51.044;3.746;2022-10-12T12:03:20;12.60;;;6.33;;
13327;SDS011;6733;51.044;3.746;2022-10-12T12:09:05;13.83;;;7.10;;
13327;SDS011;6733;51.044;3.746;2022-10-12T12:11:43;15.90;;;7.13;;
13327;SDS011;6733;51.044;3.746;2022-10-12T12:19:41;21.13;;;6.73;;
13327;SDS011;6733;51.044;3.746;2022-10-12T12:22:15;13.03;;;6.57;;
13327;SDS011;6733;51.044;3.746;2022-10-12T12:25:00;12.13;;;6.20;;
13327;SDS011;6733;51.044;3.746;2022-10-12T12:27:36;13.03;;;6.00;;
13327;SDS011;6733;51.044;3.746;2022-10-12T12:37:44;12.13;;;5.40;;
13327;SDS011;6733;51.044;3.746;2022-10-12T12:40:29;9.37;;;5.00;;
13327;SDS011;6733;51.044;3.746;2022-10-12T12:46:18;8.43;;;4.93;;
13327;SDS011;6733;51.044;3.746;2022-10-12T12:51:11;12.33;;;5.77;;
13327;SDS011;6733;51.044;3.746;2022-10-12T13:02:00;10.57;;;5.77;;
13327;SDS011;6733;51.044;3.746;2022-10-12T13:10:24;10.90;;;5.23;;
13327;SDS011;6733;51.044;3.746;2022-10-12T13:21:08;11.57;;;4.27;;
13327;SDS011;6733;51.044;3.746;2022-10-12T13:23:40;11.23;;;4.37;;
13327;SDS011;6733;51.044;3.746;2022-10-12T13:26:09;8.93;;;4.70;;
13327;SDS011;6733;51.044;3.746;2022-10-12T13:33:53;12.90;;;5.23;;
13327;SDS011;6733;51.044;3.746;2022-10-12T13:36:31;8.10;;;5.10;;
13327;SDS011;6733;51.044;3.746;2022-10-12T13:39:12;12.93;;;5.50;;
13327;SDS011;6733;51.044;3.746;2022-10-12T13:41:50;11.20;;;5.30;;
13327;SDS011;6733;51.044;3.746;2022-10-12T13:46:51;10.33;;;5.00;;
13327;SDS011;6733;51.044;3.746;2022-10-12T13:49:45;16.27;;;5.13;;
13327;SDS011;6733;51.044;3.746;2022-10-12T13:54:39;8.20;;;4.80;;
13327;SDS011;6733;51.044;3.746;2022-10-12T14:00:08;13.17;;;5.47;;
13327;SDS011;6733;51.044;3.746;2022-10-12T14:02:42;9.73;;;5.07;;
13327;SDS011;6733;51.044;3.746;2022-10-12T14:05:24;10.10;;;5.13;;
13327;SDS011;6733;51.044;3.746;2022-10-12T14:07:53;10.57;;;5.00;;
13327;SDS011;6733;51.044;3.746;2022-10-12T14:10:25;12.77;;;4.87;;
13327;SDS011;6733;51.044;3.746;2022-10-12T14:13:01;11.27;;;4.60;;
13327;SDS011;6733;51.044;3.746;2022-10-12T14:15:30;11.57;;;5.20;;
13327;SDS011;6733;51.044;3.746;2022-10-12T14:29:23;13.83;;;5.07;;
13327;SDS011;6733;51.044;3.746;2022-10-12T14:35:07;8.80;;;4.60;;
13327;SDS011;6733;51.044;3.746;2022-10-12T14:37:58;10.03;;;4.53;;
13327;SDS011;6733;51.044;3.746;2022-10-12T14:40:38;9.67;;;4.30;;
13327;SDS011;6733;51.044;3.746;2022-10-12T14:45:44;9.73;;;4.80;;
13327;SDS011;6733;51.044;3.746;2022-10-12T14:48:30;10.30;;;4.60;;
13327;SDS011;6733;51.044;3.746;2022-10-12T14:51:10;10.07;;;4.17;;
13327;SDS011;6733;51.044;3.746;2022-10-12T14:53:43;9.83;;;4.50;;
13327;SDS011;6733;51.044;3.746;2022-10-12T14:56:09;11.83;;;4.43;;
13327;SDS011;6733;51.044;3.746;2022-10-12T14:58:36;7.90;;;3.67;;
13327;SDS011;6733;51.044;3.746;2022-10-12T15:01:15;8.63;;;3.90;;
13327;SDS011;6733;51.044;3.746;2022-10-12T15:03:43;11.33;;;4.10;;
13327;SDS011;6733;51.044;3.746;2022-10-12T15:06:12;7.03;;;4.30;;
13327;SDS011;6733;51.044;3.746;2022-10-12T15:08:40;9.77;;;5.03;;
13327;SDS011;6733;51.044;3.746;2022-10-12T15:11:08;8.43;;;4.53;;
13327;SDS011;6733;51.044;3.746;2022-10-12T15:13:38;11.47;;;4.37;;
13327;SDS011;6733;51.044;3.746;2022-10-12T15:18:45;9.33;;;4.50;;
13327;SDS011;6733;51.044;3.746;2022-10-12T15:21:11;9.33;;;4.90;;
13327;SDS011;6733;51.044;3.746;2022-10-12T15:23:38;13.17;;;4.80;;
13327;SDS011;6733;51.044;3.746;2022-10-12T15:26:04;9.77;;;5.03;;
13327;SDS011;6733;51.044;3.746;2022-10-12T15:28:30;8.67;;;4.10;;
13327;SDS011;6733;51.044;3.746;2022-10-12T15:30:58;6.70;;;4.40;;
13327;SDS011;6733;51.044;3.746;2022-10-12T15:33:30;8.07;;;4.33;;
13327;SDS011;6733;51.044;3.746;2022-10-12T15:35:57;8.77;;;5.00;;
13327;SDS011;6733;51.044;3.746;2022-10-12T15:38:23;6.80;;;4.50;;
13327;SDS011;6733;51.044;3.746;2022-10-12T15:40:49;9.53;;;4.43;;
13327;SDS011;6733;51.044;3.746;2022-10-12T15:43:17;10.33;;;5.40;;
13327;SDS011;6733;51.044;3.746;2022-10-12T15:45:43;10.17;;;5.17;;
13327;SDS011;6733;51.044;3.746;2022-10-12T15:48:09;8.67;;;4.90;;
13327;SDS011;6733;51.044;3.746;2022-10-12T15:50:37;10.87;;;4.63;;
13327;SDS011;6733;51.044;3.746;2022-10-12T15:53:06;7.17;;;4.63;;
13327;SDS011;6733;51.044;3.746;2022-10-12T15:55:34;10.57;;;5.13;;
13327;SDS011;6733;51.044;3.746;2022-10-12T15:58:01;14.90;;;5.17;;
13327;SDS011;6733;51.044;3.746;2022-10-12T16:00:28;13.43;;;5.10;;
13327;SDS011;6733;51.044;3.746;2022-10-12T16:02:57;10.67;;;5.47;;
13327;SDS011;6733;51.044;3.746;2022-10-12T16:05:26;6.87;;;5.20;;
13327;SDS011;6733;51.044;3.746;2022-10-12T16:07:53;14.57;;;5.40;;
13327;SDS011;6733;51.044;3.746;2022-10-12T16:10:21;10.20;;;5.17;;
13327;SDS011;6733;51.044;3.746;2022-10-12T16:12:50;8.90;;;5.63;;
13327;SDS011;6733;51.044;3.746;2022-10-12T16:15:19;11.47;;;5.37;;
13327;SDS011;6733;51.044;3.746;2022-10-12T16:17:48;12.17;;;5.50;;
13327;SDS011;6733;51.044;3.746;2022-10-12T16:20:14;10.27;;;5.33;;
13327;SDS011;6733;51.044;3.746;2022-10-12T16:22:41;8.23;;;4.77;;
13327;SDS011;6733;51.044;3.746;2022-10-12T16:25:08;7.97;;;4.70;;
13327;SDS011;6733;51.044;3.746;2022-10-12T16:27:36;12.07;;;5.10;;
13327;SDS011;6733;51.044;3.746;2022-10-12T16:30:03;11.90;;;5.40;;
13327;SDS011;6733;51.044;3.746;2022-10-12T16:32:31;14.93;;;5.70;;
13327;SDS011;6733;51.044;3.746;2022-10-12T16:34:57;14.90;;;5.43;;
13327;SDS011;6733;51.044;3.746;2022-10-12T16:37:23;11.97;;;5.73;;
13327;SDS011;6733;51.044;3.746;2022-10-12T16:39:51;9.33;;;5.47;;
13327;SDS011;6733;51.044;3.746;2022-10-12T16:42:19;9.37;;;5.43;;
13327;SDS011;6733;51.044;3.746;2022-10-12T16:44:45;10.80;;;5.63;;
13327;SDS011;6733;51.044;3.746;2022-10-12T16:47:12;11.37;;;5.70;;
13327;SDS011;6733;51.044;3.746;2022-10-12T16:49:38;13.80;;;6.23;;
13327;SDS011;6733;51.044;3.746;2022-10-12T16:52:05;11.77;;;6.60;;
13327;SDS011;6733;51.044;3.746;2022-10-12T16:54:31;12.53;;;6.93;;
13327;SDS011;6733;51.044;3.746;2022-10-12T16:57:00;12.40;;;6.57;;
13327;SDS011;6733;51.044;3.746;2022-10-12T16:59:27;10.47;;;6.17;;
13327;SDS011;6733;51.044;3.746;2022-10-12T17:01:53;11.67;;;6.13;;
13327;SDS011;6733;51.044;3.746;2022-10-12T17:04:20;10.17;;;6.30;;
13327;SDS011;6733;51.044;3.746;2022-10-12T17:06:46;13.27;;;6.17;;
13327;SDS011;6733;51.044;3.746;2022-10-12T17:11:42;16.67;;;9.67;;
13327;SDS011;6733;51.044;3.746;2022-10-12T17:14:09;24.03;;;14.73;;
13327;SDS011;6733;51.044;3.746;2022-10-12T17:16:37;16.50;;;10.07;;
13327;SDS011;6733;51.044;3.746;2022-10-12T17:19:19;16.97;;;8.73;;
13327;SDS011;6733;51.044;3.746;2022-10-12T17:21:52;18.13;;;7.50;;
13327;SDS011;6733;51.044;3.746;2022-10-12T17:26:47;8.53;;;5.67;;
13327;SDS011;6733;51.044;3.746;2022-10-12T17:29:15;14.87;;;8.67;;
13327;SDS011;6733;51.044;3.746;2022-10-12T17:31:43;15.90;;;10.13;;
13327;SDS011;6733;51.044;3.746;2022-10-12T17:34:17;23.87;;;15.00;;
13327;SDS011;6733;51.044;3.746;2022-10-12T17:36:45;25.50;;;14.63;;
13327;SDS011;6733;51.044;3.746;2022-10-12T17:39:12;23.47;;;14.30;;
13327;SDS011;6733;51.044;3.746;2022-10-12T17:41:39;21.03;;;13.83;;
13327;SDS011;6733;51.044;3.746;2022-10-12T17:44:05;21.33;;;12.30;;
13327;SDS011;6733;51.044;3.746;2022-10-12T17:46:31;16.87;;;10.73;;